sensor_id;sensor_type;location;lat;lon;timestamp;temperature;humidity
3310;DHT22;1667;53.238;10.394;2023-04-24T00:01:40;16.60;93.20
3310;DHT22;1667;53.238;10.394;2023-04-24T00:06:39;16.60;92.90
3310;DHT22;1667;53.238;10.394;2023-04-24T00:11:41;16.50;93.40
3310;DHT22;1667;53.238;10.394;2023-04-24T00:16:39;16.50;93.30
3310;DHT22;1667;53.238;10.394;2023-04-24T00:21:38;16.50;93.20
3310;DHT22;1667;53.238;10.394;2023-04-24T00:26:37;16.40;93.20
3310;DHT22;1667;53.238;10.394;2023-04-24T00:31:37;16.40;93.20
3310;DHT22;1667;53.238;10.394;2023-04-24T00:36:35;16.30;93.40
3310;DHT22;1667;53.238;10.394;2023-04-24T00:41:34;16.30;93.30
3310;DHT22;1667;53.238;10.394;2023-04-24T00:46:33;16.20;93.10
3310;DHT22;1667;53.238;10.394;2023-04-24T00:51:33;16.20;93.40
3310;DHT22;1667;53.238;10.394;2023-04-24T00:56:32;16.20;93.20
3310;DHT22;1667;53.238;10.394;2023-04-24T01:01:30;16.10;93.10
3310;DHT22;1667;53.238;10.394;2023-04-24T01:06:30;16.10;93.40
3310;DHT22;1667;53.238;10.394;2023-04-24T01:11:31;16.10;93.40
3310;DHT22;1667;53.238;10.394;2023-04-24T01:16:29;16.10;93.70
3310;DHT22;1667;53.238;10.394;2023-04-24T01:21:30;16.10;93.60
3310;DHT22;1667;53.238;10.394;2023-04-24T01:26:30;16.10;93.80
3310;DHT22;1667;53.238;10.394;2023-04-24T01:31:28;16.00;93.50
3310;DHT22;1667;53.238;10.394;2023-04-24T01:36:28;16.00;93.80
3310;DHT22;1667;53.238;10.394;2023-04-24T01:41:29;15.90;93.60
3310;DHT22;1667;53.238;10.394;2023-04-24T01:46:28;15.90;93.60
3310;DHT22;1667;53.238;10.394;2023-04-24T01:51:28;15.90;93.60
3310;DHT22;1667;53.238;10.394;2023-04-24T01:56:30;15.80;93.80
3310;DHT22;1667;53.238;10.394;2023-04-24T02:01:34;15.80;93.60
3310;DHT22;1667;53.238;10.394;2023-04-24T02:06:34;15.70;93.60
3310;DHT22;1667;53.238;10.394;2023-04-24T02:11:34;15.70;93.70
3310;DHT22;1667;53.238;10.394;2023-04-24T02:16:32;15.70;93.60
3310;DHT22;1667;53.238;10.394;2023-04-24T02:21:33;15.60;93.70
3310;DHT22;1667;53.238;10.394;2023-04-24T02:26:32;15.50;93.70
3310;DHT22;1667;53.238;10.394;2023-04-24T02:31:31;15.50;93.60
3310;DHT22;1667;53.238;10.394;2023-04-24T02:36:31;15.50;93.60
3310;DHT22;1667;53.238;10.394;2023-04-24T02:41:29;15.40;93.50
3310;DHT22;1667;53.238;10.394;2023-04-24T02:46:31;15.30;93.50
3310;DHT22;1667;53.238;10.394;2023-04-24T02:51:30;15.30;93.60
3310;DHT22;1667;53.238;10.394;2023-04-24T02:56:29;15.30;93.70
3310;DHT22;1667;53.238;10.394;2023-04-24T03:01:30;15.20;93.80
3310;DHT22;1667;53.238;10.394;2023-04-24T03:06:29;15.10;93.90
3310;DHT22;1667;53.238;10.394;2023-04-24T03:11:28;15.10;94.10
3310;DHT22;1667;53.238;10.394;2023-04-24T03:16:27;15.00;94.10
3310;DHT22;1667;53.238;10.394;2023-04-24T03:21:27;15.00;94.10
3310;DHT22;1667;53.238;10.394;2023-04-24T03:26:26;15.00;94.10
3310;DHT22;1667;53.238;10.394;2023-04-24T03:31:44;14.90;93.90
3310;DHT22;1667;53.238;10.394;2023-04-24T03:36:44;14.90;94.00
3310;DHT22;1667;53.238;10.394;2023-04-24T03:41:45;14.80;93.80
3310;DHT22;1667;53.238;10.394;2023-04-24T03:46:48;14.80;93.90
3310;DHT22;1667;53.238;10.394;2023-04-24T03:51:50;14.70;93.80
3310;DHT22;1667;53.238;10.394;2023-04-24T03:56:52;14.60;93.70
3310;DHT22;1667;53.238;10.394;2023-04-24T04:01:53;14.60;93.80
3310;DHT22;1667;53.238;10.394;2023-04-24T04:06:53;14.50;93.70
3310;DHT22;1667;53.238;10.394;2023-04-24T04:11:53;14.50;93.60
3310;DHT22;1667;53.238;10.394;2023-04-24T04:16:52;14.50;93.60
3310;DHT22;1667;53.238;10.394;2023-04-24T04:21:52;14.50;93.50
3310;DHT22;1667;53.238;10.394;2023-04-24T04:27:13;14.40;93.50
3310;DHT22;1667;53.238;10.394;2023-04-24T04:32:23;14.40;93.50
3310;DHT22;1667;53.238;10.394;2023-04-24T04:37:24;14.40;93.40
3310;DHT22;1667;53.238;10.394;2023-04-24T04:42:41;14.30;93.40
3310;DHT22;1667;53.238;10.394;2023-04-24T04:47:44;14.30;93.40
3310;DHT22;1667;53.238;10.394;2023-04-24T04:52:45;14.20;93.30
3310;DHT22;1667;53.238;10.394;2023-04-24T04:57:52;14.20;93.40
3310;DHT22;1667;53.238;10.394;2023-04-24T05:02:51;14.20;93.30
3310;DHT22;1667;53.238;10.394;2023-04-24T05:07:54;14.20;93.40
3310;DHT22;1667;53.238;10.394;2023-04-24T05:12:53;14.20;93.70
3310;DHT22;1667;53.238;10.394;2023-04-24T05:17:52;14.20;93.60
3310;DHT22;1667;53.238;10.394;2023-04-24T05:22:56;14.20;93.60
3310;DHT22;1667;53.238;10.394;2023-04-24T05:27:56;14.20;93.70
3310;DHT22;1667;53.238;10.394;2023-04-24T05:32:55;14.20;93.70
3310;DHT22;1667;53.238;10.394;2023-04-24T05:37:57;14.30;93.80
3310;DHT22;1667;53.238;10.394;2023-04-24T05:42:56;14.30;93.80
3310;DHT22;1667;53.238;10.394;2023-04-24T05:47:54;14.30;93.70
3310;DHT22;1667;53.238;10.394;2023-04-24T05:52:53;14.40;93.70
3310;DHT22;1667;53.238;10.394;2023-04-24T05:57:57;14.40;93.60
3310;DHT22;1667;53.238;10.394;2023-04-24T06:02:57;14.40;93.60
3310;DHT22;1667;53.238;10.394;2023-04-24T06:07:57;14.40;93.40
3310;DHT22;1667;53.238;10.394;2023-04-24T06:13:03;14.40;93.50
3310;DHT22;1667;53.238;10.394;2023-04-24T06:18:03;14.50;93.50
3310;DHT22;1667;53.238;10.394;2023-04-24T06:23:03;14.50;93.70
3310;DHT22;1667;53.238;10.394;2023-04-24T06:28:04;14.60;93.40
3310;DHT22;1667;53.238;10.394;2023-04-24T06:33:02;14.70;93.50
3310;DHT22;1667;53.238;10.394;2023-04-24T06:38:16;14.90;93.40
3310;DHT22;1667;53.238;10.394;2023-04-24T06:43:15;15.10;93.40
3310;DHT22;1667;53.238;10.394;2023-04-24T06:48:14;15.10;93.10
3310;DHT22;1667;53.238;10.394;2023-04-24T06:53:13;15.10;93.10
3310;DHT22;1667;53.238;10.394;2023-04-24T06:58:11;15.20;93.10
3310;DHT22;1667;53.238;10.394;2023-04-24T07:03:12;15.30;93.10
3310;DHT22;1667;53.238;10.394;2023-04-24T07:08:11;15.30;93.00
3310;DHT22;1667;53.238;10.394;2023-04-24T07:13:10;15.40;93.00
3310;DHT22;1667;53.238;10.394;2023-04-24T07:18:08;15.60;93.10
3310;DHT22;1667;53.238;10.394;2023-04-24T07:23:08;15.80;92.90
3310;DHT22;1667;53.238;10.394;2023-04-24T07:28:06;15.90;92.60
3310;DHT22;1667;53.238;10.394;2023-04-24T07:33:05;15.90;92.40
3310;DHT22;1667;53.238;10.394;2023-04-24T07:38:04;15.90;92.20
3310;DHT22;1667;53.238;10.394;2023-04-24T07:43:04;15.90;92.10
3310;DHT22;1667;53.238;10.394;2023-04-24T07:48:03;15.90;92.10
3310;DHT22;1667;53.238;10.394;2023-04-24T07:53:01;16.00;92.00
3310;DHT22;1667;53.238;10.394;2023-04-24T07:58:00;16.10;91.90
3310;DHT22;1667;53.238;10.394;2023-04-24T08:03:00;16.20;91.80
3310;DHT22;1667;53.238;10.394;2023-04-24T08:07:59;16.30;91.90
3310;DHT22;1667;53.238;10.394;2023-04-24T08:12:58;16.50;92.00
3310;DHT22;1667;53.238;10.394;2023-04-24T08:17:57;16.70;91.90
3310;DHT22;1667;53.238;10.394;2023-04-24T08:22:57;16.70;91.80
3310;DHT22;1667;53.238;10.394;2023-04-24T08:27:55;16.70;91.00
3310;DHT22;1667;53.238;10.394;2023-04-24T08:32:54;16.70;91.00
3310;DHT22;1667;53.238;10.394;2023-04-24T08:37:53;16.80;91.00
3310;DHT22;1667;53.238;10.394;2023-04-24T08:42:54;17.00;90.90
3310;DHT22;1667;53.238;10.394;2023-04-24T08:47:54;17.10;91.00
3310;DHT22;1667;53.238;10.394;2023-04-24T08:52:52;17.30;90.70
3310;DHT22;1667;53.238;10.394;2023-04-24T08:57:53;17.30;90.30
3310;DHT22;1667;53.238;10.394;2023-04-24T09:02:53;17.40;90.20
3310;DHT22;1667;53.238;10.394;2023-04-24T09:07:54;17.50;90.10
3310;DHT22;1667;53.238;10.394;2023-04-24T09:12:55;17.50;90.00
3310;DHT22;1667;53.238;10.394;2023-04-24T09:17:55;17.60;90.10
3310;DHT22;1667;53.238;10.394;2023-04-24T09:22:54;17.60;90.10
3310;DHT22;1667;53.238;10.394;2023-04-24T09:28:00;17.60;90.00
3310;DHT22;1667;53.238;10.394;2023-04-24T09:33:14;17.60;90.10
3310;DHT22;1667;53.238;10.394;2023-04-24T09:38:13;17.70;89.70
3310;DHT22;1667;53.238;10.394;2023-04-24T09:43:13;17.70;90.10
3310;DHT22;1667;53.238;10.394;2023-04-24T09:48:12;17.90;90.10
3310;DHT22;1667;53.238;10.394;2023-04-24T09:53:10;18.10;90.00
3310;DHT22;1667;53.238;10.394;2023-04-24T09:58:09;18.20;88.80
3310;DHT22;1667;53.238;10.394;2023-04-24T10:03:09;18.30;88.00
3310;DHT22;1667;53.238;10.394;2023-04-24T10:08:10;18.30;86.70
3310;DHT22;1667;53.238;10.394;2023-04-24T10:13:09;18.40;86.30
3310;DHT22;1667;53.238;10.394;2023-04-24T10:18:10;18.50;87.50
3310;DHT22;1667;53.238;10.394;2023-04-24T10:23:09;18.60;87.10
3310;DHT22;1667;53.238;10.394;2023-04-24T10:28:09;18.70;87.00
3310;DHT22;1667;53.238;10.394;2023-04-24T10:33:10;18.80;86.00
3310;DHT22;1667;53.238;10.394;2023-04-24T10:38:12;19.00;86.20
3310;DHT22;1667;53.238;10.394;2023-04-24T10:43:11;19.00;85.50
3310;DHT22;1667;53.238;10.394;2023-04-24T10:48:15;19.20;84.90
3310;DHT22;1667;53.238;10.394;2023-04-24T10:53:16;19.20;84.70
3310;DHT22;1667;53.238;10.394;2023-04-24T10:58:16;19.20;84.40
3310;DHT22;1667;53.238;10.394;2023-04-24T11:03:27;19.20;83.60
3310;DHT22;1667;53.238;10.394;2023-04-24T11:08:28;19.30;83.20
3310;DHT22;1667;53.238;10.394;2023-04-24T11:14:04;19.50;83.00
3310;DHT22;1667;53.238;10.394;2023-04-24T11:19:08;19.60;81.30
3310;DHT22;1667;53.238;10.394;2023-04-24T11:24:24;19.70;82.30
3310;DHT22;1667;53.238;10.394;2023-04-24T11:29:23;19.60;81.50
3310;DHT22;1667;53.238;10.394;2023-04-24T11:34:23;19.60;78.90
3310;DHT22;1667;53.238;10.394;2023-04-24T11:39:21;19.60;79.00
3310;DHT22;1667;53.238;10.394;2023-04-24T11:44:20;19.60;78.50
3310;DHT22;1667;53.238;10.394;2023-04-24T11:49:20;19.60;79.10
3310;DHT22;1667;53.238;10.394;2023-04-24T11:54:20;19.70;79.00
3310;DHT22;1667;53.238;10.394;2023-04-24T11:59:18;19.80;78.60
3310;DHT22;1667;53.238;10.394;2023-04-24T12:04:18;19.80;79.50
3310;DHT22;1667;53.238;10.394;2023-04-24T12:09:17;19.70;79.80
3310;DHT22;1667;53.238;10.394;2023-04-24T12:14:17;19.50;78.30
3310;DHT22;1667;53.238;10.394;2023-04-24T12:19:18;19.40;78.70
3310;DHT22;1667;53.238;10.394;2023-04-24T12:24:18;19.30;79.40
3310;DHT22;1667;53.238;10.394;2023-04-24T12:29:21;19.20;79.40
3310;DHT22;1667;53.238;10.394;2023-04-24T12:34:20;19.20;80.20
3310;DHT22;1667;53.238;10.394;2023-04-24T12:39:20;19.30;80.30
3310;DHT22;1667;53.238;10.394;2023-04-24T12:44:28;19.30;79.30
3310;DHT22;1667;53.238;10.394;2023-04-24T12:49:27;19.40;79.50
3310;DHT22;1667;53.238;10.394;2023-04-24T12:54:26;19.40;79.20
3310;DHT22;1667;53.238;10.394;2023-04-24T12:59:31;19.40;78.60
3310;DHT22;1667;53.238;10.394;2023-04-24T13:04:30;19.30;78.40
3310;DHT22;1667;53.238;10.394;2023-04-24T13:09:30;19.20;78.50
3310;DHT22;1667;53.238;10.394;2023-04-24T13:14:28;19.00;78.00
3310;DHT22;1667;53.238;10.394;2023-04-24T13:19:29;18.90;77.90
3310;DHT22;1667;53.238;10.394;2023-04-24T13:24:27;18.70;78.10
3310;DHT22;1667;53.238;10.394;2023-04-24T13:29:26;18.50;79.00
3310;DHT22;1667;53.238;10.394;2023-04-24T13:34:25;18.40;78.50
3310;DHT22;1667;53.238;10.394;2023-04-24T13:39:25;18.20;78.50
3310;DHT22;1667;53.238;10.394;2023-04-24T13:44:24;18.10;79.00
3310;DHT22;1667;53.238;10.394;2023-04-24T13:49:23;18.00;79.10
3310;DHT22;1667;53.238;10.394;2023-04-24T13:54:22;18.10;80.40
3310;DHT22;1667;53.238;10.394;2023-04-24T13:59:24;18.20;79.70
3310;DHT22;1667;53.238;10.394;2023-04-24T14:04:23;18.30;79.70
3310;DHT22;1667;53.238;10.394;2023-04-24T14:09:22;18.30;79.40
3310;DHT22;1667;53.238;10.394;2023-04-24T14:14:20;18.40;79.20
3310;DHT22;1667;53.238;10.394;2023-04-24T14:19:20;18.30;79.10
3310;DHT22;1667;53.238;10.394;2023-04-24T14:24:19;18.20;78.80
3310;DHT22;1667;53.238;10.394;2023-04-24T14:29:17;18.10;79.10
3310;DHT22;1667;53.238;10.394;2023-04-24T14:34:16;18.00;79.90
3310;DHT22;1667;53.238;10.394;2023-04-24T14:39:16;17.90;80.70
3310;DHT22;1667;53.238;10.394;2023-04-24T14:44:15;17.90;80.40
3310;DHT22;1667;53.238;10.394;2023-04-24T14:49:13;17.80;80.50
3310;DHT22;1667;53.238;10.394;2023-04-24T14:54:12;17.80;81.00
3310;DHT22;1667;53.238;10.394;2023-04-24T14:59:12;17.70;80.80
3310;DHT22;1667;53.238;10.394;2023-04-24T15:04:12;17.50;80.80
3310;DHT22;1667;53.238;10.394;2023-04-24T15:09:10;17.40;81.80
3310;DHT22;1667;53.238;10.394;2023-04-24T15:14:09;17.40;83.30
3310;DHT22;1667;53.238;10.394;2023-04-24T15:19:09;17.40;83.30
3310;DHT22;1667;53.238;10.394;2023-04-24T15:24:08;17.30;84.00
3310;DHT22;1667;53.238;10.394;2023-04-24T15:29:06;17.20;85.10
3310;DHT22;1667;53.238;10.394;2023-04-24T15:34:05;17.20;86.30
3310;DHT22;1667;53.238;10.394;2023-04-24T15:39:05;17.10;88.40
3310;DHT22;1667;53.238;10.394;2023-04-24T15:44:05;17.00;88.80
3310;DHT22;1667;53.238;10.394;2023-04-24T15:49:04;16.80;89.50
3310;DHT22;1667;53.238;10.394;2023-04-24T15:54:05;16.70;90.40
3310;DHT22;1667;53.238;10.394;2023-04-24T15:59:03;16.50;90.90
3310;DHT22;1667;53.238;10.394;2023-04-24T16:04:01;16.20;91.20
3310;DHT22;1667;53.238;10.394;2023-04-24T16:09:00;16.00;91.60
3310;DHT22;1667;53.238;10.394;2023-04-24T16:14:01;15.70;91.30
3310;DHT22;1667;53.238;10.394;2023-04-24T16:18:59;15.50;91.50
3310;DHT22;1667;53.238;10.394;2023-04-24T16:23:57;15.40;91.80
3310;DHT22;1667;53.238;10.394;2023-04-24T16:28:56;15.30;91.60
3310;DHT22;1667;53.238;10.394;2023-04-24T16:33:56;15.20;91.60
3310;DHT22;1667;53.238;10.394;2023-04-24T16:38:55;15.00;91.70
3310;DHT22;1667;53.238;10.394;2023-04-24T16:43:54;14.90;91.80
3310;DHT22;1667;53.238;10.394;2023-04-24T16:48:53;14.70;92.00
3310;DHT22;1667;53.238;10.394;2023-04-24T16:53:52;14.60;92.30
3310;DHT22;1667;53.238;10.394;2023-04-24T16:58:51;14.50;92.40
3310;DHT22;1667;53.238;10.394;2023-04-24T17:03:49;14.40;92.50
3310;DHT22;1667;53.238;10.394;2023-04-24T17:08:48;14.40;92.60
3310;DHT22;1667;53.238;10.394;2023-04-24T17:13:48;14.40;92.70
3310;DHT22;1667;53.238;10.394;2023-04-24T17:18:46;14.30;92.70
3310;DHT22;1667;53.238;10.394;2023-04-24T17:23:45;14.30;92.70
3310;DHT22;1667;53.238;10.394;2023-04-24T17:28:44;14.20;92.80
3310;DHT22;1667;53.238;10.394;2023-04-24T17:33:44;14.20;93.00
3310;DHT22;1667;53.238;10.394;2023-04-24T17:38:43;14.20;93.10
3310;DHT22;1667;53.238;10.394;2023-04-24T17:43:41;14.20;93.10
3310;DHT22;1667;53.238;10.394;2023-04-24T17:48:41;14.10;93.30
3310;DHT22;1667;53.238;10.394;2023-04-24T17:53:41;14.00;93.30
3310;DHT22;1667;53.238;10.394;2023-04-24T17:58:40;14.00;93.40
3310;DHT22;1667;53.238;10.394;2023-04-24T18:03:38;14.00;93.50
3310;DHT22;1667;53.238;10.394;2023-04-24T18:08:37;13.90;93.60
3310;DHT22;1667;53.238;10.394;2023-04-24T18:13:38;13.90;93.60
3310;DHT22;1667;53.238;10.394;2023-04-24T18:18:37;13.80;93.60
3310;DHT22;1667;53.238;10.394;2023-04-24T18:23:35;13.70;93.90
3310;DHT22;1667;53.238;10.394;2023-04-24T18:28:34;13.60;94.20
3310;DHT22;1667;53.238;10.394;2023-04-24T18:33:34;13.60;94.30
3310;DHT22;1667;53.238;10.394;2023-04-24T18:38:33;13.60;94.20
3310;DHT22;1667;53.238;10.394;2023-04-24T18:43:32;13.50;94.50
3310;DHT22;1667;53.238;10.394;2023-04-24T18:48:30;13.50;94.60
3310;DHT22;1667;53.238;10.394;2023-04-24T18:53:30;13.60;94.50
3310;DHT22;1667;53.238;10.394;2023-04-24T18:58:29;13.50;94.70
3310;DHT22;1667;53.238;10.394;2023-04-24T19:03:27;13.50;94.60
3310;DHT22;1667;53.238;10.394;2023-04-24T19:08:29;13.50;94.60
3310;DHT22;1667;53.238;10.394;2023-04-24T19:13:28;13.40;95.00
3310;DHT22;1667;53.238;10.394;2023-04-24T19:18:26;13.30;94.90
3310;DHT22;1667;53.238;10.394;2023-04-24T19:23:25;13.30;95.00
3310;DHT22;1667;53.238;10.394;2023-04-24T19:28:25;13.20;95.10
3310;DHT22;1667;53.238;10.394;2023-04-24T19:33:23;13.20;95.30
3310;DHT22;1667;53.238;10.394;2023-04-24T19:38:22;13.10;95.40
3310;DHT22;1667;53.238;10.394;2023-04-24T19:43:21;13.10;95.30
3310;DHT22;1667;53.238;10.394;2023-04-24T19:48:20;13.20;95.50
3310;DHT22;1667;53.238;10.394;2023-04-24T19:53:19;13.10;95.80
3310;DHT22;1667;53.238;10.394;2023-04-24T19:58:18;13.00;95.40
3310;DHT22;1667;53.238;10.394;2023-04-24T20:03:16;13.00;95.60
3310;DHT22;1667;53.238;10.394;2023-04-24T20:08:31;13.00;95.80
3310;DHT22;1667;53.238;10.394;2023-04-24T20:13:29;13.00;95.80
3310;DHT22;1667;53.238;10.394;2023-04-24T20:18:29;13.00;95.90
3310;DHT22;1667;53.238;10.394;2023-04-24T20:23:27;13.00;95.80
3310;DHT22;1667;53.238;10.394;2023-04-24T20:28:27;13.00;95.70
3310;DHT22;1667;53.238;10.394;2023-04-24T20:33:26;12.90;95.90
3310;DHT22;1667;53.238;10.394;2023-04-24T20:38:26;12.90;95.90
3310;DHT22;1667;53.238;10.394;2023-04-24T20:43:26;12.90;96.10
3310;DHT22;1667;53.238;10.394;2023-04-24T20:48:25;12.90;96.10
3310;DHT22;1667;53.238;10.394;2023-04-24T20:53:24;13.00;96.20
3310;DHT22;1667;53.238;10.394;2023-04-24T20:58:22;12.90;96.10
3310;DHT22;1667;53.238;10.394;2023-04-24T21:03:22;12.90;96.10
3310;DHT22;1667;53.238;10.394;2023-04-24T21:08:21;12.90;96.10
3310;DHT22;1667;53.238;10.394;2023-04-24T21:13:19;12.80;96.10
3310;DHT22;1667;53.238;10.394;2023-04-24T21:18:18;12.80;96.10
3310;DHT22;1667;53.238;10.394;2023-04-24T21:23:18;12.70;96.60
3310;DHT22;1667;53.238;10.394;2023-04-24T21:28:16;12.60;96.70
3310;DHT22;1667;53.238;10.394;2023-04-24T21:33:15;12.70;96.40
3310;DHT22;1667;53.238;10.394;2023-04-24T21:38:14;12.70;96.50
3310;DHT22;1667;53.238;10.394;2023-04-24T21:43:17;12.70;96.50
3310;DHT22;1667;53.238;10.394;2023-04-24T21:48:29;12.70;96.40
3310;DHT22;1667;53.238;10.394;2023-04-24T21:53:28;12.70;96.40
3310;DHT22;1667;53.238;10.394;2023-04-24T21:58:28;12.60;96.30
3310;DHT22;1667;53.238;10.394;2023-04-24T22:03:26;12.60;96.50
3310;DHT22;1667;53.238;10.394;2023-04-24T22:08:26;12.60;96.70
3310;DHT22;1667;53.238;10.394;2023-04-24T22:13:24;12.60;96.60
3310;DHT22;1667;53.238;10.394;2023-04-24T22:18:24;12.60;96.80
3310;DHT22;1667;53.238;10.394;2023-04-24T22:23:40;12.50;96.80
3310;DHT22;1667;53.238;10.394;2023-04-24T22:28:38;12.50;96.90
3310;DHT22;1667;53.238;10.394;2023-04-24T22:33:38;12.50;97.10
3310;DHT22;1667;53.238;10.394;2023-04-24T22:38:37;12.50;97.10
3310;DHT22;1667;53.238;10.394;2023-04-24T22:43:35;12.40;97.10
3310;DHT22;1667;53.238;10.394;2023-04-24T22:48:34;12.40;97.00
3310;DHT22;1667;53.238;10.394;2023-04-24T22:53:34;12.40;97.20
3310;DHT22;1667;53.238;10.394;2023-04-24T22:58:33;12.40;97.20
3310;DHT22;1667;53.238;10.394;2023-04-24T23:03:31;12.40;97.10
3310;DHT22;1667;53.238;10.394;2023-04-24T23:08:32;12.30;97.10
3310;DHT22;1667;53.238;10.394;2023-04-24T23:13:31;12.30;97.20
3310;DHT22;1667;53.238;10.394;2023-04-24T23:18:30;12.30;97.20
3310;DHT22;1667;53.238;10.394;2023-04-24T23:23:28;12.30;97.20
3310;DHT22;1667;53.238;10.394;2023-04-24T23:28:27;12.20;97.10
3310;DHT22;1667;53.238;10.394;2023-04-24T23:33:27;12.20;97.30
3310;DHT22;1667;53.238;10.394;2023-04-24T23:38:25;12.20;97.30
3310;DHT22;1667;53.238;10.394;2023-04-24T23:43:39;12.10;97.70
3310;DHT22;1667;53.238;10.394;2023-04-24T23:48:39;12.10;97.50
3310;DHT22;1667;53.238;10.394;2023-04-24T23:53:37;12.10;97.60
3310;DHT22;1667;53.238;10.394;2023-04-24T23:58:35;12.10;97.60
